WBSB/BWN METAR and TAF weather

Enter ICAO airport designator
Station Type Date Time Source
WBSB METAR 2019/02/16 03:00 UTC NOAA

WBSB 160300Z 16004KT 9999 SCT016 BKN300 32/22 Q1014 NOSIG


Station Type Date Time Source
WBSB Decoded METAR 2019/02/16 03:00 UTC NOAA

Brunei Airport, Brunei (WBSB) 04-56N 114-56E 15M
Feb 15, 2019 - 10:00 PM EST / 2019.02.16 0300 UTC
Wind: from the SSE (160 degrees) at 5 MPH (4 KT):0
Visibility: greater than 7 mile(s):0
Sky conditions: mostly cloudy
Temperature: 89 F (32 C)
Heat index: 95.0 F (35.0 C):1
Dew Point: 71 F (22 C)
Relative Humidity: 55%
Pressure (altimeter): 29.94 in. Hg (1014 hPa)
ob: WBSB 160300Z 16004KT 9999 SCT016 BKN300 32/22 Q1014 NOSIG
cycle: 3

Station Type Date Time Source
WBSB TAF 2019/02/15 18:11 UTC NOAA

TAF WBSB 151650Z 1518/1700 22003KT 9999 FEW015
BECMG 1603/1605 04010KT FEW016 FEW017CB


Example: see airport list